sensor_id;sensor_type;location;lat;lon;timestamp;pressure;altitude;pressure_sealevel;temperature;humidity
37200;BME280;23096;50.892;16.746;2023-09-30T00:01:12;99515.40;;;23.06;48.41
37200;BME280;23096;50.892;16.746;2023-09-30T00:03:39;99516.73;;;23.00;48.50
37200;BME280;23096;50.892;16.746;2023-09-30T00:06:05;99509.13;;;22.90;48.48
37200;BME280;23096;50.892;16.746;2023-09-30T00:08:31;99511.31;;;22.80;48.69
37200;BME280;23096;50.892;16.746;2023-09-30T00:10:56;99508.83;;;22.73;48.80
37200;BME280;23096;50.892;16.746;2023-09-30T00:13:21;99509.85;;;22.69;48.90
37200;BME280;23096;50.892;16.746;2023-09-30T00:15:47;99512.10;;;22.68;49.07
37200;BME280;23096;50.892;16.746;2023-09-30T00:18:13;99515.76;;;22.68;49.10
37200;BME280;23096;50.892;16.746;2023-09-30T00:20:39;99511.73;;;22.68;49.09
37200;BME280;23096;50.892;16.746;2023-09-30T00:23:04;99516.27;;;22.68;49.17
37200;BME280;23096;50.892;16.746;2023-09-30T00:25:32;99519.66;;;22.67;49.19
37200;BME280;23096;50.892;16.746;2023-09-30T00:27:58;99524.77;;;22.67;49.29
37200;BME280;23096;50.892;16.746;2023-09-30T00:30:24;99525.13;;;22.68;49.28
37200;BME280;23096;50.892;16.746;2023-09-30T00:32:49;99522.23;;;22.72;49.16
37200;BME280;23096;50.892;16.746;2023-09-30T00:35:15;99521.23;;;22.76;49.23
37200;BME280;23096;50.892;16.746;2023-09-30T00:37:41;99522.56;;;22.77;49.28
37200;BME280;23096;50.892;16.746;2023-09-30T00:40:08;99524.96;;;22.77;49.26
37200;BME280;23096;50.892;16.746;2023-09-30T00:42:40;99522.95;;;22.78;49.27
37200;BME280;23096;50.892;16.746;2023-09-30T00:45:07;99522.98;;;22.81;49.16
37200;BME280;23096;50.892;16.746;2023-09-30T00:47:36;99522.39;;;22.82;49.24
37200;BME280;23096;50.892;16.746;2023-09-30T00:50:03;99521.95;;;22.83;49.32
37200;BME280;23096;50.892;16.746;2023-09-30T00:52:35;99524.80;;;22.84;49.10
37200;BME280;23096;50.892;16.746;2023-09-30T00:55:00;99525.41;;;22.83;49.14
37200;BME280;23096;50.892;16.746;2023-09-30T00:57:29;99528.83;;;22.82;49.13
37200;BME280;23096;50.892;16.746;2023-09-30T00:59:56;99526.54;;;22.80;49.10
37200;BME280;23096;50.892;16.746;2023-09-30T01:02:22;99529.03;;;22.77;49.16
37200;BME280;23096;50.892;16.746;2023-09-30T01:04:49;99531.89;;;22.74;49.05
37200;BME280;23096;50.892;16.746;2023-09-30T01:07:15;99529.08;;;22.72;49.16
37200;BME280;23096;50.892;16.746;2023-09-30T01:09:41;99535.38;;;22.70;49.14
37200;BME280;23096;50.892;16.746;2023-09-30T01:12:07;99532.89;;;22.68;49.23
37200;BME280;23096;50.892;16.746;2023-09-30T01:14:35;99534.42;;;22.66;49.27
37200;BME280;23096;50.892;16.746;2023-09-30T01:17:01;99545.71;;;22.65;49.24
37200;BME280;23096;50.892;16.746;2023-09-30T01:19:27;99543.52;;;22.62;49.22
37200;BME280;23096;50.892;16.746;2023-09-30T01:21:56;99543.70;;;22.59;49.43
37200;BME280;23096;50.892;16.746;2023-09-30T01:24:25;99548.71;;;22.58;49.36
37200;BME280;23096;50.892;16.746;2023-09-30T01:26:51;99546.48;;;22.55;49.37
37200;BME280;23096;50.892;16.746;2023-09-30T01:29:16;99548.06;;;22.50;49.53
37200;BME280;23096;50.892;16.746;2023-09-30T01:31:43;99552.02;;;22.45;49.60
37200;BME280;23096;50.892;16.746;2023-09-30T01:34:14;99555.27;;;22.39;49.70
37200;BME280;23096;50.892;16.746;2023-09-30T01:36:40;99555.13;;;22.31;49.87
37200;BME280;23096;50.892;16.746;2023-09-30T01:39:05;99559.30;;;22.24;50.08
37200;BME280;23096;50.892;16.746;2023-09-30T01:41:32;99559.35;;;22.19;50.25
37200;BME280;23096;50.892;16.746;2023-09-30T01:43:58;99563.92;;;22.12;50.41
37200;BME280;23096;50.892;16.746;2023-09-30T01:46:23;99568.86;;;22.04;50.60
37200;BME280;23096;50.892;16.746;2023-09-30T01:48:49;99573.41;;;21.99;51.03
37200;BME280;23096;50.892;16.746;2023-09-30T01:51:15;99576.05;;;21.94;51.14
37200;BME280;23096;50.892;16.746;2023-09-30T01:53:40;99578.40;;;21.88;51.36
37200;BME280;23096;50.892;16.746;2023-09-30T01:56:06;99576.55;;;21.83;51.44
37200;BME280;23096;50.892;16.746;2023-09-30T01:58:32;99577.77;;;21.78;51.59
37200;BME280;23096;50.892;16.746;2023-09-30T02:01:04;99574.32;;;21.75;51.85
37200;BME280;23096;50.892;16.746;2023-09-30T02:03:29;99571.20;;;21.72;52.10
37200;BME280;23096;50.892;16.746;2023-09-30T02:05:58;99572.03;;;21.70;52.21
37200;BME280;23096;50.892;16.746;2023-09-30T02:08:24;99572.64;;;21.67;52.40
37200;BME280;23096;50.892;16.746;2023-09-30T02:10:50;99576.24;;;21.65;52.63
37200;BME280;23096;50.892;16.746;2023-09-30T02:13:19;99575.60;;;21.64;52.83
37200;BME280;23096;50.892;16.746;2023-09-30T02:15:45;99570.97;;;21.63;52.88
37200;BME280;23096;50.892;16.746;2023-09-30T02:18:11;99565.37;;;21.61;53.05
37200;BME280;23096;50.892;16.746;2023-09-30T02:20:37;99567.36;;;21.60;53.25
37200;BME280;23096;50.892;16.746;2023-09-30T02:23:09;99571.28;;;21.59;53.26
37200;BME280;23096;50.892;16.746;2023-09-30T02:25:39;99573.80;;;21.58;53.33
37200;BME280;23096;50.892;16.746;2023-09-30T02:28:06;99577.19;;;21.57;53.41
37200;BME280;23096;50.892;16.746;2023-09-30T02:30:32;99578.68;;;21.53;53.61
37200;BME280;23096;50.892;16.746;2023-09-30T02:32:58;99580.40;;;21.51;53.73
37200;BME280;23096;50.892;16.746;2023-09-30T02:35:24;99576.47;;;21.48;53.82
37200;BME280;23096;50.892;16.746;2023-09-30T02:37:51;99575.77;;;21.42;53.98
37200;BME280;23096;50.892;16.746;2023-09-30T02:40:18;99577.80;;;21.38;54.04
37200;BME280;23096;50.892;16.746;2023-09-30T02:42:45;99579.05;;;21.35;54.13
37200;BME280;23096;50.892;16.746;2023-09-30T02:45:11;99583.23;;;21.33;54.27
37200;BME280;23096;50.892;16.746;2023-09-30T02:47:39;99580.35;;;21.29;54.58
37200;BME280;23096;50.892;16.746;2023-09-30T02:50:06;99576.61;;;21.25;54.65
37200;BME280;23096;50.892;16.746;2023-09-30T02:52:39;99579.61;;;21.22;54.75
37200;BME280;23096;50.892;16.746;2023-09-30T02:55:10;99582.99;;;21.19;54.77
37200;BME280;23096;50.892;16.746;2023-09-30T02:57:37;99583.32;;;21.14;54.97
37200;BME280;23096;50.892;16.746;2023-09-30T03:00:03;99581.27;;;21.11;55.24
37200;BME280;23096;50.892;16.746;2023-09-30T03:02:46;99580.02;;;21.06;55.34
37200;BME280;23096;50.892;16.746;2023-09-30T03:05:11;99584.81;;;21.03;55.48
37200;BME280;23096;50.892;16.746;2023-09-30T03:07:37;99586.95;;;21.00;55.60
37200;BME280;23096;50.892;16.746;2023-09-30T03:10:03;99588.02;;;20.97;55.68
37200;BME280;23096;50.892;16.746;2023-09-30T03:12:34;99588.69;;;20.95;55.84
37200;BME280;23096;50.892;16.746;2023-09-30T03:15:00;99588.55;;;20.95;55.83
37200;BME280;23096;50.892;16.746;2023-09-30T03:17:30;99588.98;;;20.93;55.94
37200;BME280;23096;50.892;16.746;2023-09-30T03:19:58;99590.00;;;20.91;56.17
37200;BME280;23096;50.892;16.746;2023-09-30T03:22:25;99585.84;;;20.88;56.16
37200;BME280;23096;50.892;16.746;2023-09-30T03:24:54;99591.74;;;20.83;56.29
37200;BME280;23096;50.892;16.746;2023-09-30T03:27:19;99598.85;;;20.79;56.44
37200;BME280;23096;50.892;16.746;2023-09-30T03:29:46;99597.13;;;20.76;56.61
37200;BME280;23096;50.892;16.746;2023-09-30T03:32:11;99600.06;;;20.74;56.83
37200;BME280;23096;50.892;16.746;2023-09-30T03:34:37;99602.27;;;20.73;56.83
37200;BME280;23096;50.892;16.746;2023-09-30T03:37:03;99607.30;;;20.71;56.68
37200;BME280;23096;50.892;16.746;2023-09-30T03:39:32;99610.40;;;20.69;56.91
37200;BME280;23096;50.892;16.746;2023-09-30T03:41:57;99611.05;;;20.67;57.17
37200;BME280;23096;50.892;16.746;2023-09-30T03:44:24;99615.08;;;20.64;57.16
37200;BME280;23096;50.892;16.746;2023-09-30T03:46:51;99617.83;;;20.59;57.17
37200;BME280;23096;50.892;16.746;2023-09-30T03:49:18;99624.66;;;20.56;57.24
37200;BME280;23096;50.892;16.746;2023-09-30T03:51:45;99630.32;;;20.52;57.47
37200;BME280;23096;50.892;16.746;2023-09-30T03:54:11;99631.91;;;20.46;57.57
37200;BME280;23096;50.892;16.746;2023-09-30T03:56:37;99638.49;;;20.42;57.65
37200;BME280;23096;50.892;16.746;2023-09-30T03:59:04;99634.82;;;20.37;57.72
37200;BME280;23096;50.892;16.746;2023-09-30T04:01:29;99636.13;;;20.30;57.65
37200;BME280;23096;50.892;16.746;2023-09-30T04:03:56;99637.23;;;20.24;57.89
37200;BME280;23096;50.892;16.746;2023-09-30T04:06:22;99640.34;;;20.20;57.93
37200;BME280;23096;50.892;16.746;2023-09-30T04:08:48;99639.75;;;20.12;58.09
37200;BME280;23096;50.892;16.746;2023-09-30T04:11:13;99640.13;;;20.06;58.23
37200;BME280;23096;50.892;16.746;2023-09-30T04:13:44;99643.58;;;19.99;58.31
37200;BME280;23096;50.892;16.746;2023-09-30T04:16:10;99652.97;;;19.94;58.61
37200;BME280;23096;50.892;16.746;2023-09-30T04:18:35;99658.23;;;19.91;58.70
37200;BME280;23096;50.892;16.746;2023-09-30T04:21:01;99651.24;;;19.85;58.67
37200;BME280;23096;50.892;16.746;2023-09-30T04:23:27;99649.39;;;19.82;58.93
37200;BME280;23096;50.892;16.746;2023-09-30T04:25:53;99648.47;;;19.77;58.98
37200;BME280;23096;50.892;16.746;2023-09-30T04:28:18;99652.70;;;19.73;59.21
37200;BME280;23096;50.892;16.746;2023-09-30T04:30:49;99650.80;;;19.67;59.13
37200;BME280;23096;50.892;16.746;2023-09-30T04:33:16;99651.66;;;19.62;59.32
37200;BME280;23096;50.892;16.746;2023-09-30T04:35:43;99652.79;;;19.58;59.42
37200;BME280;23096;50.892;16.746;2023-09-30T04:38:10;99660.55;;;19.53;59.59
37200;BME280;23096;50.892;16.746;2023-09-30T04:40:36;99664.99;;;19.49;59.61
37200;BME280;23096;50.892;16.746;2023-09-30T04:43:02;99667.50;;;19.45;59.64
37200;BME280;23096;50.892;16.746;2023-09-30T04:45:28;99669.95;;;19.42;59.98
37200;BME280;23096;50.892;16.746;2023-09-30T04:47:54;99668.66;;;19.41;60.05
37200;BME280;23096;50.892;16.746;2023-09-30T04:50:21;99672.50;;;19.38;60.04
37200;BME280;23096;50.892;16.746;2023-09-30T04:52:48;99681.00;;;19.35;60.23
37200;BME280;23096;50.892;16.746;2023-09-30T04:55:14;99687.39;;;19.33;60.39
37200;BME280;23096;50.892;16.746;2023-09-30T04:57:45;99692.41;;;19.31;60.45
37200;BME280;23096;50.892;16.746;2023-09-30T05:00:16;99691.93;;;19.27;60.77
37200;BME280;23096;50.892;16.746;2023-09-30T05:02:47;99694.00;;;19.25;60.76
37200;BME280;23096;50.892;16.746;2023-09-30T05:05:13;99698.45;;;19.23;60.90
37200;BME280;23096;50.892;16.746;2023-09-30T05:07:40;99701.87;;;19.21;60.95
37200;BME280;23096;50.892;16.746;2023-09-30T05:10:07;99700.84;;;19.18;61.04
37200;BME280;23096;50.892;16.746;2023-09-30T05:12:37;99703.61;;;19.15;61.31
37200;BME280;23096;50.892;16.746;2023-09-30T05:15:04;99712.48;;;19.12;61.33
37200;BME280;23096;50.892;16.746;2023-09-30T05:17:31;99720.13;;;19.13;61.40
37200;BME280;23096;50.892;16.746;2023-09-30T05:19:57;99728.47;;;19.13;61.58
37200;BME280;23096;50.892;16.746;2023-09-30T05:22:23;99731.26;;;19.13;61.67
37200;BME280;23096;50.892;16.746;2023-09-30T05:24:53;99731.58;;;19.13;61.68
37200;BME280;23096;50.892;16.746;2023-09-30T05:27:19;99733.70;;;19.13;61.65
37200;BME280;23096;50.892;16.746;2023-09-30T05:29:45;99730.54;;;19.11;61.79
37200;BME280;23096;50.892;16.746;2023-09-30T05:32:10;99732.26;;;19.08;61.90
37200;BME280;23096;50.892;16.746;2023-09-30T05:34:36;99730.48;;;19.06;61.86
37200;BME280;23096;50.892;16.746;2023-09-30T05:37:04;99733.09;;;19.03;62.08
37200;BME280;23096;50.892;16.746;2023-09-30T05:39:30;99735.88;;;19.00;62.14
37200;BME280;23096;50.892;16.746;2023-09-30T05:41:57;99736.59;;;18.97;62.28
37200;BME280;23096;50.892;16.746;2023-09-30T05:44:23;99739.39;;;18.93;62.46
37200;BME280;23096;50.892;16.746;2023-09-30T05:46:48;99740.83;;;18.90;62.34
37200;BME280;23096;50.892;16.746;2023-09-30T05:49:15;99751.48;;;18.86;62.47
37200;BME280;23096;50.892;16.746;2023-09-30T05:51:41;99755.83;;;18.83;62.51
37200;BME280;23096;50.892;16.746;2023-09-30T05:54:07;99759.08;;;18.81;62.74
37200;BME280;23096;50.892;16.746;2023-09-30T05:56:37;99766.89;;;18.77;62.84
37200;BME280;23096;50.892;16.746;2023-09-30T05:59:04;99780.78;;;18.72;62.81
37200;BME280;23096;50.892;16.746;2023-09-30T06:01:31;99793.77;;;18.61;62.85
37200;BME280;23096;50.892;16.746;2023-09-30T06:04:00;99804.29;;;18.44;62.79
37200;BME280;23096;50.892;16.746;2023-09-30T06:06:29;99804.91;;;18.23;63.12
37200;BME280;23096;50.892;16.746;2023-09-30T06:08:56;99809.79;;;18.04;62.99
37200;BME280;23096;50.892;16.746;2023-09-30T06:11:24;99810.60;;;17.88;63.32
37200;BME280;23096;50.892;16.746;2023-09-30T06:13:51;99818.46;;;17.73;63.47
37200;BME280;23096;50.892;16.746;2023-09-30T06:16:18;99825.77;;;17.60;63.70
37200;BME280;23096;50.892;16.746;2023-09-30T06:18:44;99830.19;;;17.48;63.77
37200;BME280;23096;50.892;16.746;2023-09-30T06:21:11;99838.03;;;17.41;63.93
37200;BME280;23096;50.892;16.746;2023-09-30T06:23:37;99843.61;;;17.34;64.07
37200;BME280;23096;50.892;16.746;2023-09-30T06:26:03;99847.18;;;17.28;64.17
37200;BME280;23096;50.892;16.746;2023-09-30T06:28:28;99849.80;;;17.24;64.31
37200;BME280;23096;50.892;16.746;2023-09-30T06:30:57;99855.16;;;17.21;64.46
37200;BME280;23096;50.892;16.746;2023-09-30T06:33:23;99865.27;;;17.20;64.59
37200;BME280;23096;50.892;16.746;2023-09-30T06:35:48;99869.35;;;17.18;64.60
37200;BME280;23096;50.892;16.746;2023-09-30T06:38:20;99871.31;;;17.14;64.63
37200;BME280;23096;50.892;16.746;2023-09-30T06:40:46;99877.20;;;17.11;64.77
37200;BME280;23096;50.892;16.746;2023-09-30T06:43:13;99885.85;;;17.04;64.70
37200;BME280;23096;50.892;16.746;2023-09-30T06:45:41;99888.29;;;16.89;64.57
37200;BME280;23096;50.892;16.746;2023-09-30T06:48:08;99892.29;;;16.74;64.79
37200;BME280;23096;50.892;16.746;2023-09-30T06:50:45;99903.45;;;16.61;65.00
37200;BME280;23096;50.892;16.746;2023-09-30T06:53:18;99909.29;;;16.47;65.24
37200;BME280;23096;50.892;16.746;2023-09-30T06:55:44;99916.96;;;16.27;65.27
37200;BME280;23096;50.892;16.746;2023-09-30T06:58:10;99912.20;;;16.09;65.59
37200;BME280;23096;50.892;16.746;2023-09-30T07:00:37;99909.84;;;16.00;65.95
37200;BME280;23096;50.892;16.746;2023-09-30T07:03:03;99913.27;;;15.97;66.17
37200;BME280;23096;50.892;16.746;2023-09-30T07:05:29;99918.36;;;15.95;66.26
37200;BME280;23096;50.892;16.746;2023-09-30T07:07:55;99922.00;;;15.96;66.56
37200;BME280;23096;50.892;16.746;2023-09-30T07:10:21;99932.84;;;15.97;66.53
37200;BME280;23096;50.892;16.746;2023-09-30T07:12:47;99938.14;;;15.99;66.54
37200;BME280;23096;50.892;16.746;2023-09-30T07:15:13;99940.89;;;15.99;66.83
37200;BME280;23096;50.892;16.746;2023-09-30T07:17:42;99946.33;;;16.02;66.79
37200;BME280;23096;50.892;16.746;2023-09-30T07:20:09;99951.55;;;16.05;66.87
37200;BME280;23096;50.892;16.746;2023-09-30T07:22:35;99955.98;;;16.07;66.87
37200;BME280;23096;50.892;16.746;2023-09-30T07:25:01;99958.45;;;16.06;66.75
37200;BME280;23096;50.892;16.746;2023-09-30T07:27:26;99960.23;;;16.04;66.64
37200;BME280;23096;50.892;16.746;2023-09-30T07:29:52;99962.06;;;16.06;66.67
37200;BME280;23096;50.892;16.746;2023-09-30T07:32:18;99966.36;;;16.07;66.72
37200;BME280;23096;50.892;16.746;2023-09-30T07:34:44;99969.09;;;16.08;66.68
37200;BME280;23096;50.892;16.746;2023-09-30T07:37:10;99969.61;;;16.08;66.61
37200;BME280;23096;50.892;16.746;2023-09-30T07:39:35;99969.42;;;16.08;66.70
37200;BME280;23096;50.892;16.746;2023-09-30T07:42:01;99971.77;;;16.06;66.58
37200;BME280;23096;50.892;16.746;2023-09-30T07:44:28;99968.41;;;16.00;66.68
37200;BME280;23096;50.892;16.746;2023-09-30T07:46:54;99962.48;;;15.92;66.66
37200;BME280;23096;50.892;16.746;2023-09-30T07:49:19;99959.90;;;15.88;66.78
37200;BME280;23096;50.892;16.746;2023-09-30T07:51:45;99959.89;;;15.84;66.96
37200;BME280;23096;50.892;16.746;2023-09-30T07:54:11;99957.48;;;15.80;67.09
37200;BME280;23096;50.892;16.746;2023-09-30T07:56:37;99963.20;;;15.75;67.38
37200;BME280;23096;50.892;16.746;2023-09-30T07:59:04;99966.18;;;15.70;67.36
37200;BME280;23096;50.892;16.746;2023-09-30T08:01:31;99971.35;;;15.66;67.59
37200;BME280;23096;50.892;16.746;2023-09-30T08:03:56;99972.93;;;15.66;67.67
37200;BME280;23096;50.892;16.746;2023-09-30T08:06:22;99971.88;;;15.57;67.67
37200;BME280;23096;50.892;16.746;2023-09-30T08:08:48;99974.83;;;15.49;67.75
37200;BME280;23096;50.892;16.746;2023-09-30T08:11:15;99975.33;;;15.41;67.80
37200;BME280;23096;50.892;16.746;2023-09-30T08:13:40;99980.17;;;15.36;67.99
37200;BME280;23096;50.892;16.746;2023-09-30T08:16:06;99980.45;;;15.33;68.14
37200;BME280;23096;50.892;16.746;2023-09-30T08:18:32;99982.73;;;15.33;68.25
37200;BME280;23096;50.892;16.746;2023-09-30T08:20:58;99981.64;;;15.34;68.29
37200;BME280;23096;50.892;16.746;2023-09-30T08:23:23;99989.33;;;15.37;68.53
37200;BME280;23096;50.892;16.746;2023-09-30T08:25:49;99995.76;;;15.41;68.70
37200;BME280;23096;50.892;16.746;2023-09-30T08:28:14;100004.20;;;15.46;68.84
37200;BME280;23096;50.892;16.746;2023-09-30T08:30:40;100008.87;;;15.50;68.89
37200;BME280;23096;50.892;16.746;2023-09-30T08:33:06;100009.00;;;15.56;68.77
37200;BME280;23096;50.892;16.746;2023-09-30T08:35:38;100015.95;;;15.60;68.79
37200;BME280;23096;50.892;16.746;2023-09-30T08:38:04;100019.98;;;15.63;68.89
37200;BME280;23096;50.892;16.746;2023-09-30T08:40:30;100024.74;;;15.65;68.88
37200;BME280;23096;50.892;16.746;2023-09-30T08:42:56;100033.56;;;15.69;68.94
37200;BME280;23096;50.892;16.746;2023-09-30T08:45:23;100039.94;;;15.75;68.77
37200;BME280;23096;50.892;16.746;2023-09-30T08:47:49;100046.18;;;15.79;68.84
37200;BME280;23096;50.892;16.746;2023-09-30T08:50:16;100048.86;;;15.82;68.81
37200;BME280;23096;50.892;16.746;2023-09-30T08:52:43;100045.36;;;15.82;68.77
37200;BME280;23096;50.892;16.746;2023-09-30T08:55:10;100040.80;;;15.88;68.73
37200;BME280;23096;50.892;16.746;2023-09-30T08:57:37;100044.70;;;15.94;68.61
37200;BME280;23096;50.892;16.746;2023-09-30T09:00:06;100044.38;;;15.98;68.58
37200;BME280;23096;50.892;16.746;2023-09-30T09:02:34;100050.30;;;16.01;68.41
37200;BME280;23096;50.892;16.746;2023-09-30T09:05:01;100051.19;;;16.05;68.41
37200;BME280;23096;50.892;16.746;2023-09-30T09:07:27;100051.70;;;16.09;68.29
37200;BME280;23096;50.892;16.746;2023-09-30T09:10:09;100056.02;;;16.14;68.21
37200;BME280;23096;50.892;16.746;2023-09-30T09:12:40;100064.64;;;16.15;67.90
37200;BME280;23096;50.892;16.746;2023-09-30T09:15:07;100075.02;;;16.11;67.63
37200;BME280;23096;50.892;16.746;2023-09-30T09:17:44;100078.27;;;16.04;67.50
37200;BME280;23096;50.892;16.746;2023-09-30T09:20:11;100075.18;;;15.99;67.42
37200;BME280;23096;50.892;16.746;2023-09-30T09:22:42;100071.39;;;15.94;67.23
37200;BME280;23096;50.892;16.746;2023-09-30T09:25:09;100065.40;;;15.88;67.16
37200;BME280;23096;50.892;16.746;2023-09-30T09:27:34;100060.95;;;15.86;67.14
37200;BME280;23096;50.892;16.746;2023-09-30T09:30:26;100057.94;;;15.88;67.08
37200;BME280;23096;50.892;16.746;2023-09-30T09:32:52;100060.48;;;15.90;66.86
37200;BME280;23096;50.892;16.746;2023-09-30T09:35:22;100059.50;;;15.93;66.89
37200;BME280;23096;50.892;16.746;2023-09-30T09:37:58;100059.46;;;15.98;66.56
37200;BME280;23096;50.892;16.746;2023-09-30T09:40:28;100064.25;;;16.03;66.40
37200;BME280;23096;50.892;16.746;2023-09-30T09:42:55;100072.60;;;16.03;66.18
37200;BME280;23096;50.892;16.746;2023-09-30T09:45:27;100080.69;;;16.00;65.97
37200;BME280;23096;50.892;16.746;2023-09-30T09:47:54;100090.34;;;15.97;65.89
37200;BME280;23096;50.892;16.746;2023-09-30T09:50:21;100095.65;;;15.98;65.62
37200;BME280;23096;50.892;16.746;2023-09-30T09:52:49;100098.35;;;15.96;65.45
37200;BME280;23096;50.892;16.746;2023-09-30T09:55:21;100096.23;;;15.93;65.27
37200;BME280;23096;50.892;16.746;2023-09-30T09:57:48;100089.88;;;15.96;65.24
37200;BME280;23096;50.892;16.746;2023-09-30T10:00:22;100084.17;;;16.00;65.12
37200;BME280;23096;50.892;16.746;2023-09-30T10:02:49;100080.33;;;16.00;64.87
37200;BME280;23096;50.892;16.746;2023-09-30T10:05:16;100081.16;;;16.01;64.64
37200;BME280;23096;50.892;16.746;2023-09-30T10:07:56;100075.66;;;16.04;64.64
37200;BME280;23096;50.892;16.746;2023-09-30T10:10:23;100074.74;;;16.14;64.60
37200;BME280;23096;50.892;16.746;2023-09-30T10:12:50;100074.69;;;16.23;64.42
37200;BME280;23096;50.892;16.746;2023-09-30T10:18:01;100083.19;;;16.36;63.83
37200;BME280;23096;50.892;16.746;2023-09-30T10:20:39;100084.25;;;16.35;63.56
37200;BME280;23096;50.892;16.746;2023-09-30T10:23:26;100083.89;;;16.36;63.45
37200;BME280;23096;50.892;16.746;2023-09-30T10:28:42;100079.98;;;16.42;63.10
37200;BME280;23096;50.892;16.746;2023-09-30T10:31:17;100081.06;;;16.49;62.89
37200;BME280;23096;50.892;16.746;2023-09-30T10:39:01;100087.26;;;16.66;62.46
37200;BME280;23096;50.892;16.746;2023-09-30T10:46:54;100081.86;;;16.79;61.84
37200;BME280;23096;50.892;16.746;2023-09-30T10:51:52;100089.66;;;16.83;61.57
37200;BME280;23096;50.892;16.746;2023-09-30T10:54:29;100097.33;;;16.81;61.33
37200;BME280;23096;50.892;16.746;2023-09-30T10:56:56;100098.23;;;16.81;61.34
37200;BME280;23096;50.892;16.746;2023-09-30T10:59:22;100096.80;;;16.82;61.03
37200;BME280;23096;50.892;16.746;2023-09-30T11:01:52;100095.77;;;16.86;60.91
37200;BME280;23096;50.892;16.746;2023-09-30T11:04:21;100099.51;;;16.92;60.73
37200;BME280;23096;50.892;16.746;2023-09-30T11:06:47;100101.95;;;16.92;60.62
37200;BME280;23096;50.892;16.746;2023-09-30T11:09:17;100099.17;;;16.84;60.37
37200;BME280;23096;50.892;16.746;2023-09-30T11:11:45;100100.68;;;16.85;60.25
37200;BME280;23096;50.892;16.746;2023-09-30T11:14:25;100103.84;;;16.88;60.15
37200;BME280;23096;50.892;16.746;2023-09-30T11:16:52;100101.52;;;16.90;60.02
37200;BME280;23096;50.892;16.746;2023-09-30T11:19:19;100100.92;;;16.92;59.82
37200;BME280;23096;50.892;16.746;2023-09-30T11:21:50;100098.58;;;16.94;59.67
37200;BME280;23096;50.892;16.746;2023-09-30T11:24:17;100095.98;;;16.93;59.55
37200;BME280;23096;50.892;16.746;2023-09-30T11:26:44;100095.72;;;16.87;59.42
37200;BME280;23096;50.892;16.746;2023-09-30T11:29:11;100097.16;;;16.81;59.31
37200;BME280;23096;50.892;16.746;2023-09-30T11:31:38;100099.25;;;16.81;59.27
37200;BME280;23096;50.892;16.746;2023-09-30T11:34:04;100102.23;;;16.81;59.15
37200;BME280;23096;50.892;16.746;2023-09-30T11:36:30;100097.64;;;16.83;59.28
37200;BME280;23096;50.892;16.746;2023-09-30T11:38:57;100091.16;;;16.88;59.23
37200;BME280;23096;50.892;16.746;2023-09-30T11:41:31;100093.02;;;16.93;59.04
37200;BME280;23096;50.892;16.746;2023-09-30T11:44:08;100099.58;;;16.98;59.02
37200;BME280;23096;50.892;16.746;2023-09-30T11:46:58;100098.80;;;17.04;58.96
37200;BME280;23096;50.892;16.746;2023-09-30T11:49:35;100097.83;;;17.10;58.95
37200;BME280;23096;50.892;16.746;2023-09-30T11:52:06;100100.41;;;17.11;58.65
37200;BME280;23096;50.892;16.746;2023-09-30T11:54:41;100099.75;;;17.10;58.62
37200;BME280;23096;50.892;16.746;2023-09-30T11:57:10;100100.15;;;17.13;58.52
37200;BME280;23096;50.892;16.746;2023-09-30T11:59:36;100094.89;;;17.18;58.37
37200;BME280;23096;50.892;16.746;2023-09-30T12:02:03;100090.29;;;17.27;58.61
37200;BME280;23096;50.892;16.746;2023-09-30T12:04:31;100090.64;;;17.35;58.50
37200;BME280;23096;50.892;16.746;2023-09-30T12:06:57;100091.63;;;17.39;58.28
37200;BME280;23096;50.892;16.746;2023-09-30T12:09:23;100095.08;;;17.40;57.98
37200;BME280;23096;50.892;16.746;2023-09-30T12:11:52;100095.96;;;17.39;57.80
37200;BME280;23096;50.892;16.746;2023-09-30T12:14:22;100096.14;;;17.40;57.71
37200;BME280;23096;50.892;16.746;2023-09-30T12:16:47;100093.92;;;17.35;57.74
37200;BME280;23096;50.892;16.746;2023-09-30T12:19:14;100093.08;;;17.30;57.44
37200;BME280;23096;50.892;16.746;2023-09-30T12:21:41;100099.89;;;17.29;57.43
37200;BME280;23096;50.892;16.746;2023-09-30T12:24:08;100103.93;;;17.29;57.44
37200;BME280;23096;50.892;16.746;2023-09-30T12:26:37;100100.13;;;17.28;57.41
37200;BME280;23096;50.892;16.746;2023-09-30T12:29:04;100101.80;;;17.30;57.28
37200;BME280;23096;50.892;16.746;2023-09-30T12:31:30;100103.34;;;17.30;57.32
37200;BME280;23096;50.892;16.746;2023-09-30T12:33:56;100101.52;;;17.32;57.36
37200;BME280;23096;50.892;16.746;2023-09-30T12:36:22;100096.82;;;17.36;57.21
37200;BME280;23096;50.892;16.746;2023-09-30T12:38:47;100103.52;;;17.37;57.34
37200;BME280;23096;50.892;16.746;2023-09-30T12:41:14;100104.61;;;17.36;57.17
37200;BME280;23096;50.892;16.746;2023-09-30T12:43:40;100103.73;;;17.36;57.02
37200;BME280;23096;50.892;16.746;2023-09-30T12:46:08;100103.94;;;17.39;56.98
37200;BME280;23096;50.892;16.746;2023-09-30T12:48:34;100103.42;;;17.43;57.05
37200;BME280;23096;50.892;16.746;2023-09-30T12:51:00;100098.39;;;17.51;56.96
37200;BME280;23096;50.892;16.746;2023-09-30T12:53:25;100087.89;;;17.56;56.75
37200;BME280;23096;50.892;16.746;2023-09-30T12:55:51;100085.73;;;17.61;56.81
37200;BME280;23096;50.892;16.746;2023-09-30T12:58:17;100090.38;;;17.66;56.67
37200;BME280;23096;50.892;16.746;2023-09-30T13:00:43;100089.09;;;17.68;56.22
37200;BME280;23096;50.892;16.746;2023-09-30T13:03:09;100096.52;;;17.65;56.16
37200;BME280;23096;50.892;16.746;2023-09-30T13:05:34;100097.75;;;17.60;55.93
37200;BME280;23096;50.892;16.746;2023-09-30T13:08:00;100096.80;;;17.58;55.85